Time;durP1;ratioP1;P1;durP2;ratioP2;P2;SDS_P1;SDS_P2;PMS_P1;PMS_P2;Temp;Humidity;BMP_temperature;BMP_pressure;BME280_temperature;BME280_humidity;BME280_pressure;Samples;Min_cycle;Max_cycle;Signal;HPM_P1;HPM_P2
2022/12/14 00:02:05;;;;;;;0.10;0.10;;;;;;;;;;4993848;28;20248;-76
2022/12/14 00:04:34;;;;;;;0.17;0.17;;;;;;;;;;4977005;28;20326;-76
2022/12/14 00:07:02;;;;;;;0.20;0.20;;;;;;;;;;4974910;28;20551;-76
2022/12/14 00:09:31;;;;;;;0.10;0.10;;;;;;;;;;4973099;28;20251;-76
2022/12/14 00:11:59;;;;;;;0.20;0.20;;;;;;;;;;4974982;28;20737;-76
2022/12/14 00:14:27;;;;;;;0.20;0.20;;;;;;;;;;4974657;28;20283;-76
2022/12/14 00:16:56;;;;;;;0.20;0.20;;;;;;;;;;4975101;28;20211;-76
2022/12/14 00:19:26;;;;;;;0.20;0.20;;;;;;;;;;4967527;28;20257;-76
2022/12/14 00:21:54;;;;;;;0.20;0.20;;;;;;;;;;4966923;28;20314;-76
2022/12/14 00:24:23;;;;;;;0.20;0.20;;;;;;;;;;4974476;28;20283;-76
2022/12/14 00:26:51;;;;;;;0.20;0.20;;;;;;;;;;4974774;28;20303;-76
2022/12/14 00:29:20;;;;;;;0.20;0.20;;;;;;;;;;4977750;28;20633;-76
2022/12/14 00:31:50;;;;;;;0.20;0.20;;;;;;;;;;4991497;28;20652;-76
2022/12/14 00:34:18;;;;;;;0.20;0.20;;;;;;;;;;4975219;28;20279;-76
2022/12/14 00:36:48;;;;;;;0.20;0.20;;;;;;;;;;4959488;29;20272;-76
2022/12/14 00:39:16;;;;;;;0.30;0.30;;;;;;;;;;4964977;28;20601;-76
2022/12/14 00:41:45;;;;;;;0.20;0.20;;;;;;;;;;4978316;28;20291;-76
2022/12/14 00:44:14;;;;;;;0.20;0.20;;;;;;;;;;4978028;28;20206;-76
2022/12/14 00:46:42;;;;;;;0.20;0.20;;;;;;;;;;4978205;28;20205;-75
2022/12/14 00:49:11;;;;;;;0.20;0.20;;;;;;;;;;4977028;28;20207;-76
2022/12/14 00:51:39;;;;;;;0.20;0.20;;;;;;;;;;4997763;28;20744;-76
2022/12/14 00:54:09;;;;;;;0.20;0.20;;;;;;;;;;4996873;28;20210;-78
2022/12/14 00:56:37;;;;;;;0.20;0.20;;;;;;;;;;4958637;29;20319;-76
2022/12/14 00:59:06;;;;;;;0.20;0.20;;;;;;;;;;4964736;28;20649;-76
2022/12/14 01:01:35;;;;;;;0.20;0.20;;;;;;;;;;4965165;28;20289;-76
2022/12/14 01:04:21;;;;;;;0.20;0.20;;;;;;;;;;4960529;28;20211;-76
2022/12/14 01:06:50;;;;;;;0.20;0.20;;;;;;;;;;4977999;28;20289;-76
2022/12/14 01:09:21;;;;;;;0.20;0.20;;;;;;;;;;4977517;28;20281;-76
2022/12/14 01:11:50;;;;;;;0.20;0.20;;;;;;;;;;4969331;28;20228;-76
2022/12/14 01:14:19;;;;;;;0.20;0.20;;;;;;;;;;4977619;28;20215;-76
2022/12/14 01:16:48;;;;;;;0.20;0.20;;;;;;;;;;4978133;28;20676;-76
2022/12/14 01:19:18;;;;;;;0.20;0.20;;;;;;;;;;4976817;28;20201;-76
2022/12/14 01:21:46;;;;;;;0.20;0.20;;;;;;;;;;4977255;28;20259;-75
2022/12/14 01:24:14;;;;;;;0.20;0.20;;;;;;;;;;4987552;28;20261;-75
2022/12/14 01:26:44;;;;;;;0.20;0.20;;;;;;;;;;4996682;28;20302;-75
2022/12/14 01:29:13;;;;;;;0.20;0.20;;;;;;;;;;4984667;28;20251;-76
2022/12/14 01:31:41;;;;;;;0.20;0.20;;;;;;;;;;4977656;28;20673;-76
2022/12/14 01:34:10;;;;;;;0.20;0.20;;;;;;;;;;4976884;28;20304;-76
2022/12/14 01:36:40;;;;;;;0.20;0.20;;;;;;;;;;4977234;28;20246;-76
2022/12/14 01:39:09;;;;;;;0.20;0.20;;;;;;;;;;4971260;28;20254;-76
2022/12/14 01:41:39;;;;;;;0.20;0.20;;;;;;;;;;4977377;28;20309;-76
2022/12/14 01:44:22;;;;;;;0.20;0.20;;;;;;;;;;4975956;28;20275;-76
2022/12/14 01:46:56;;;;;;;0.20;0.20;;;;;;;;;;4977160;28;20357;-76
2022/12/14 01:49:28;;;;;;;0.20;0.20;;;;;;;;;;4976058;28;20234;-76
2022/12/14 01:52:00;;;;;;;0.20;0.20;;;;;;;;;;4977756;28;20296;-76
2022/12/14 01:54:30;;;;;;;0.20;0.20;;;;;;;;;;4977064;28;20290;-76
2022/12/14 01:56:59;;;;;;;0.20;0.20;;;;;;;;;;4975457;28;20206;-76
2022/12/14 01:59:29;;;;;;;0.20;0.20;;;;;;;;;;4984803;28;20208;-76
2022/12/14 02:01:59;;;;;;;0.20;0.20;;;;;;;;;;4996899;28;20316;-76
2022/12/14 02:04:28;;;;;;;0.20;0.20;;;;;;;;;;4986163;28;20259;-77
2022/12/14 02:06:57;;;;;;;0.20;0.20;;;;;;;;;;4974743;28;20254;-76
2022/12/14 02:09:30;;;;;;;0.20;0.20;;;;;;;;;;4983624;28;20204;-76
2022/12/14 02:12:03;;;;;;;0.20;0.20;;;;;;;;;;4984869;28;20734;-76
2022/12/14 02:14:32;;;;;;;0.20;0.20;;;;;;;;;;4974437;28;20232;-76
2022/12/14 02:17:02;;;;;;;0.10;0.10;;;;;;;;;;4976182;28;20238;-77
2022/12/14 02:19:31;;;;;;;0.20;0.20;;;;;;;;;;4975426;28;20616;-76
2022/12/14 02:22:08;;;;;;;0.20;0.20;;;;;;;;;;4976150;28;20272;-76
2022/12/14 02:25:07;;;;;;;0.20;0.20;;;;;;;;;;4968926;28;20224;-76
2022/12/14 02:27:42;;;;;;;0.20;0.20;;;;;;;;;;4976286;28;20191;-77
2022/12/14 02:30:14;;;;;;;0.20;0.20;;;;;;;;;;4975320;28;20295;-76
2022/12/14 02:32:59;;;;;;;0.20;0.20;;;;;;;;;;4976281;28;20634;-77
2022/12/14 02:35:33;;;;;;;0.20;0.20;;;;;;;;;;4988615;28;20321;-76
2022/12/14 02:38:06;;;;;;;0.20;0.20;;;;;;;;;;4978017;28;20258;-76
2022/12/14 02:40:38;;;;;;;0.20;0.20;;;;;;;;;;4976109;28;20206;-76
2022/12/14 02:43:11;;;;;;;0.20;0.20;;;;;;;;;;4975032;28;20316;-77
2022/12/14 02:45:43;;;;;;;0.20;0.20;;;;;;;;;;4975040;28;20223;-76
2022/12/14 02:48:17;;;;;;;0.20;0.20;;;;;;;;;;4976394;28;20675;-75
2022/12/14 02:50:50;;;;;;;0.20;0.20;;;;;;;;;;4982840;28;20263;-77
2022/12/14 02:53:21;;;;;;;0.20;0.20;;;;;;;;;;4974356;28;20246;-75
2022/12/14 02:55:50;;;;;;;0.20;0.20;;;;;;;;;;4968041;28;20272;-76
2022/12/14 02:58:22;;;;;;;0.20;0.20;;;;;;;;;;4980044;28;20238;-76
2022/12/14 03:00:53;;;;;;;0.20;0.20;;;;;;;;;;4992037;28;20214;-75
2022/12/14 03:03:22;;;;;;;0.20;0.20;;;;;;;;;;4988644;28;20227;-76
2022/12/14 03:05:58;;;;;;;0.20;0.20;;;;;;;;;;4956101;29;20283;-75
2022/12/14 03:08:27;;;;;;;0.20;0.20;;;;;;;;;;4961360;28;20208;-75
2022/12/14 03:10:57;;;;;;;0.20;0.20;;;;;;;;;;4975154;28;20207;-75
2022/12/14 03:13:27;;;;;;;0.20;0.20;;;;;;;;;;4984388;28;20241;-75
2022/12/14 03:15:59;;;;;;;0.20;0.20;;;;;;;;;;4994922;28;20249;-75
2022/12/14 03:18:30;;;;;;;0.20;0.20;;;;;;;;;;4979516;28;20206;-75
2022/12/14 03:20:59;;;;;;;0.20;0.20;;;;;;;;;;4975237;28;20206;-76
2022/12/14 03:23:29;;;;;;;0.20;0.20;;;;;;;;;;4973820;28;20226;-79
2022/12/14 03:26:02;;;;;;;0.20;0.20;;;;;;;;;;4975024;28;20278;-77
2022/12/14 03:28:33;;;;;;;0.20;0.20;;;;;;;;;;4973856;28;20722;-83
2022/12/14 03:31:05;;;;;;;0.20;0.20;;;;;;;;;;4974759;28;20201;-83
2022/12/14 03:33:36;;;;;;;0.20;0.20;;;;;;;;;;4961002;28;20287;-78
2022/12/14 03:36:07;;;;;;;0.30;0.30;;;;;;;;;;4971524;28;20222;-82
2022/12/14 03:38:39;;;;;;;0.20;0.20;;;;;;;;;;4971057;28;20678;-77
2022/12/14 03:41:13;;;;;;;0.20;0.20;;;;;;;;;;4974864;28;20210;-76
2022/12/14 03:43:46;;;;;;;0.30;0.30;;;;;;;;;;4974102;28;20248;-76
2022/12/14 03:46:23;;;;;;;0.30;0.30;;;;;;;;;;4967717;28;20260;-76
2022/12/14 03:48:53;;;;;;;0.30;0.30;;;;;;;;;;4966650;28;20293;-75
2022/12/14 03:51:25;;;;;;;0.30;0.30;;;;;;;;;;4974742;28;20240;-76
2022/12/14 03:53:58;;;;;;;0.20;0.20;;;;;;;;;;4974230;28;20241;-76
2022/12/14 03:56:31;;;;;;;0.30;0.30;;;;;;;;;;4973823;28;20265;-76
2022/12/14 03:59:02;;;;;;;0.30;0.30;;;;;;;;;;4973565;28;20245;-77
2022/12/14 04:01:36;;;;;;;0.30;0.30;;;;;;;;;;4973660;28;20233;-75
2022/12/14 04:04:07;;;;;;;0.20;0.20;;;;;;;;;;4973912;28;20225;-76
2022/12/14 04:06:41;;;;;;;0.20;0.20;;;;;;;;;;4962919;28;20660;-77
2022/12/14 04:09:19;;;;;;;0.20;0.20;;;;;;;;;;4977077;28;20249;-75
2022/12/14 04:20:17;;;;;;;0.20;0.20;;;;;;;;;;4958783;29;20221;-77
2022/12/14 04:22:48;;;;;;;0.20;0.20;;;;;;;;;;4958812;28;20696;-77
2022/12/14 04:29:54;;;;;;;0.30;0.30;;;;;;;;;;4978027;28;20244;-76
2022/12/14 04:30:59;;;;;;;0.30;0.30;;;;;;;;;;4996718;28;20255;-76
2022/12/14 04:33:48;;;;;;;0.20;0.20;;;;;;;;;;4981814;28;20363;-76
2022/12/14 04:36:19;;;;;;;0.20;0.20;;;;;;;;;;4977878;28;20269;-76
2022/12/14 04:38:51;;;;;;;0.20;0.20;;;;;;;;;;4970789;28;20613;-76
2022/12/14 04:41:22;;;;;;;0.20;0.20;;;;;;;;;;4967849;28;20567;-76
2022/12/14 04:43:54;;;;;;;0.30;0.30;;;;;;;;;;4971244;28;20224;-78
2022/12/14 04:46:25;;;;;;;0.30;0.30;;;;;;;;;;4997152;28;20651;-77
2022/12/14 04:48:59;;;;;;;0.20;0.20;;;;;;;;;;4990269;28;20284;-81
2022/12/14 04:51:32;;;;;;;0.20;0.20;;;;;;;;;;4977823;28;20707;-76
2022/12/14 04:54:02;;;;;;;0.20;0.20;;;;;;;;;;4970954;28;20203;-76
2022/12/14 04:56:33;;;;;;;0.20;0.20;;;;;;;;;;4977439;28;20644;-77
2022/12/14 04:59:01;;;;;;;0.30;0.30;;;;;;;;;;4972189;28;20215;-76
2022/12/14 05:01:35;;;;;;;0.20;0.20;;;;;;;;;;4970377;28;20249;-77
2022/12/14 05:04:10;;;;;;;0.20;0.20;;;;;;;;;;4976166;28;20214;-76
2022/12/14 05:06:44;;;;;;;0.30;0.30;;;;;;;;;;4976266;28;20248;-76
2022/12/14 05:09:15;;;;;;;0.20;0.20;;;;;;;;;;4973233;28;20234;-77
2022/12/14 05:11:47;;;;;;;0.20;0.20;;;;;;;;;;4987482;28;20214;-77
2022/12/14 05:14:25;;;;;;;0.20;0.20;;;;;;;;;;4957853;29;20667;-76
2022/12/14 05:16:53;;;;;;;0.20;0.20;;;;;;;;;;4973121;28;20237;-77
2022/12/14 05:19:25;;;;;;;0.20;0.20;;;;;;;;;;4970809;28;20237;-76
2022/12/14 05:21:54;;;;;;;0.20;0.20;;;;;;;;;;4981958;28;20210;-76
2022/12/14 05:24:23;;;;;;;0.30;0.30;;;;;;;;;;4976098;28;20264;-77
2022/12/14 05:26:52;;;;;;;0.20;0.20;;;;;;;;;;4976764;28;20672;-76
2022/12/14 05:29:20;;;;;;;0.20;0.20;;;;;;;;;;4975313;28;20210;-76
2022/12/14 05:31:49;;;;;;;0.20;0.20;;;;;;;;;;4977055;28;20223;-77
2022/12/14 05:34:17;;;;;;;0.20;0.20;;;;;;;;;;4975474;28;20234;-78
2022/12/14 05:36:47;;;;;;;0.30;0.30;;;;;;;;;;4970161;28;20249;-76
2022/12/14 05:39:16;;;;;;;0.30;0.30;;;;;;;;;;4974443;28;20249;-81
2022/12/14 05:41:45;;;;;;;0.30;0.30;;;;;;;;;;4957668;29;20199;-78
2022/12/14 05:44:13;;;;;;;0.30;0.30;;;;;;;;;;4982378;28;20249;-78
2022/12/14 05:46:42;;;;;;;0.30;0.30;;;;;;;;;;4987109;28;20206;-77
2022/12/14 05:49:11;;;;;;;0.30;0.30;;;;;;;;;;4968713;28;20237;-79
2022/12/14 05:51:39;;;;;;;0.20;0.20;;;;;;;;;;4974531;28;20237;-78
2022/12/14 05:54:09;;;;;;;0.20;0.20;;;;;;;;;;4970123;28;20577;-79
2022/12/14 05:56:38;;;;;;;0.30;0.30;;;;;;;;;;4981064;28;20205;-76
2022/12/14 05:59:06;;;;;;;0.30;0.30;;;;;;;;;;4990514;28;20241;-76
2022/12/14 06:01:35;;;;;;;0.30;0.30;;;;;;;;;;4975693;28;20205;-83
2022/12/14 06:04:03;;;;;;;0.20;0.20;;;;;;;;;;4991873;28;20316;-78
2022/12/14 06:06:33;;;;;;;0.30;0.30;;;;;;;;;;4974324;28;20220;-76
2022/12/14 06:09:02;;;;;;;0.20;0.20;;;;;;;;;;4974854;28;20699;-76
2022/12/14 06:11:31;;;;;;;0.30;0.30;;;;;;;;;;4976044;28;20245;-77
2022/12/14 06:14:00;;;;;;;0.30;0.30;;;;;;;;;;4975610;28;20214;-76
2022/12/14 06:16:29;;;;;;;0.20;0.20;;;;;;;;;;4975800;28;20247;-76
2022/12/14 06:18:59;;;;;;;0.20;0.20;;;;;;;;;;4973948;28;20206;-76
2022/12/14 06:21:29;;;;;;;0.30;0.30;;;;;;;;;;4970673;28;20202;-76
2022/12/14 06:23:58;;;;;;;0.20;0.20;;;;;;;;;;4975377;28;20226;-76
2022/12/14 06:26:28;;;;;;;0.20;0.20;;;;;;;;;;4975791;28;20228;-76
2022/12/14 06:28:58;;;;;;;0.20;0.20;;;;;;;;;;4975186;28;20658;-76
2022/12/14 06:31:28;;;;;;;0.20;0.20;;;;;;;;;;4974850;28;20230;-76
2022/12/14 06:33:59;;;;;;;0.20;0.20;;;;;;;;;;4975670;28;20212;-76
2022/12/14 06:36:28;;;;;;;0.30;0.30;;;;;;;;;;4974893;28;20257;-76
2022/12/14 06:38:57;;;;;;;0.30;0.30;;;;;;;;;;4975708;28;20248;-75
2022/12/14 06:41:26;;;;;;;0.30;0.30;;;;;;;;;;4974544;28;20241;-75
2022/12/14 06:43:55;;;;;;;0.30;0.30;;;;;;;;;;4975289;28;20506;-78
2022/12/14 06:46:26;;;;;;;0.30;0.30;;;;;;;;;;4974629;28;20651;-75
2022/12/14 06:48:55;;;;;;;0.30;0.30;;;;;;;;;;4975194;28;20217;-77
2022/12/14 06:51:25;;;;;;;0.30;0.30;;;;;;;;;;4976185;28;20209;-75
2022/12/14 06:53:54;;;;;;;0.30;0.30;;;;;;;;;;4975081;28;20252;-75
2022/12/14 06:56:24;;;;;;;0.30;0.30;;;;;;;;;;4975941;28;20296;-78
2022/12/14 06:58:53;;;;;;;0.27;0.27;;;;;;;;;;4975160;28;20252;-75
2022/12/14 07:01:23;;;;;;;0.20;0.20;;;;;;;;;;4974869;28;20261;-75
2022/12/14 07:03:54;;;;;;;0.30;0.30;;;;;;;;;;4975780;28;20595;-75
2022/12/14 07:06:23;;;;;;;0.30;0.30;;;;;;;;;;4975999;28;20316;-75
2022/12/14 07:08:53;;;;;;;0.30;0.30;;;;;;;;;;4974104;28;20202;-75
2022/12/14 07:11:22;;;;;;;0.20;0.20;;;;;;;;;;4975264;28;20213;-75
2022/12/14 07:13:50;;;;;;;0.30;0.30;;;;;;;;;;4975183;28;20245;-76
2022/12/14 07:16:20;;;;;;;0.30;0.30;;;;;;;;;;4975098;28;20230;-75
2022/12/14 07:18:49;;;;;;;0.20;0.20;;;;;;;;;;4975105;28;20236;-76
2022/12/14 07:21:19;;;;;;;0.30;0.30;;;;;;;;;;4974674;28;20288;-75
2022/12/14 07:23:50;;;;;;;0.30;0.30;;;;;;;;;;4974544;28;20218;-76
2022/12/14 07:26:19;;;;;;;0.20;0.20;;;;;;;;;;4974760;28;20265;-77
2022/12/14 07:28:49;;;;;;;0.30;0.30;;;;;;;;;;4974048;28;20574;-75
2022/12/14 07:31:19;;;;;;;0.30;0.30;;;;;;;;;;4974669;28;20245;-75
2022/12/14 07:33:48;;;;;;;0.30;0.30;;;;;;;;;;4974942;28;20197;-75
2022/12/14 07:36:18;;;;;;;0.30;0.30;;;;;;;;;;4974406;28;20249;-82
2022/12/14 07:38:48;;;;;;;0.20;0.20;;;;;;;;;;4974694;28;20232;-76
2022/12/14 07:41:18;;;;;;;0.30;0.30;;;;;;;;;;4974140;28;20205;-75
2022/12/14 07:43:50;;;;;;;0.20;0.20;;;;;;;;;;4974818;28;20214;-77
2022/12/14 07:46:20;;;;;;;0.30;0.30;;;;;;;;;;4974573;28;20230;-75
2022/12/14 07:48:49;;;;;;;0.20;0.20;;;;;;;;;;4974625;28;20202;-77
2022/12/14 07:51:19;;;;;;;0.20;0.20;;;;;;;;;;4972979;28;20210;-77
2022/12/14 07:53:49;;;;;;;0.30;0.30;;;;;;;;;;4974409;28;20232;-78
2022/12/14 07:56:19;;;;;;;0.30;0.30;;;;;;;;;;4974584;28;20261;-80
2022/12/14 07:58:48;;;;;;;0.30;0.30;;;;;;;;;;4974481;28;20292;-78
2022/12/14 08:01:17;;;;;;;0.20;0.20;;;;;;;;;;4974424;28;20209;-82
2022/12/14 08:03:47;;;;;;;0.30;0.30;;;;;;;;;;4973804;28;20206;-81
2022/12/14 08:06:16;;;;;;;0.30;0.30;;;;;;;;;;4973207;28;20252;-75
2022/12/14 08:08:45;;;;;;;0.30;0.30;;;;;;;;;;4974653;28;20563;-75
2022/12/14 08:11:15;;;;;;;0.30;0.30;;;;;;;;;;4974850;28;20296;-77
2022/12/14 08:13:45;;;;;;;0.20;0.20;;;;;;;;;;4974374;28;20260;-75
2022/12/14 08:16:14;;;;;;;0.20;0.20;;;;;;;;;;4973773;28;20273;-75
2022/12/14 08:18:44;;;;;;;0.30;0.30;;;;;;;;;;4974143;28;20205;-75
2022/12/14 08:21:14;;;;;;;0.30;0.30;;;;;;;;;;4974870;28;20663;-77
2022/12/14 08:23:42;;;;;;;0.30;0.30;;;;;;;;;;4974350;28;20264;-74
2022/12/14 08:26:11;;;;;;;0.30;0.30;;;;;;;;;;4974201;28;20249;-76
2022/12/14 08:28:41;;;;;;;0.30;0.30;;;;;;;;;;4973982;28;20208;-77
2022/12/14 08:31:10;;;;;;;0.30;0.30;;;;;;;;;;4974058;28;20244;-75
2022/12/14 08:33:39;;;;;;;0.30;0.30;;;;;;;;;;4974309;28;20205;-75
2022/12/14 08:36:08;;;;;;;0.30;0.30;;;;;;;;;;4974268;28;20226;-76
2022/12/14 08:38:37;;;;;;;0.20;0.20;;;;;;;;;;4974055;28;20210;-76
2022/12/14 08:41:06;;;;;;;0.20;0.20;;;;;;;;;;4974095;28;20301;-75
2022/12/14 08:43:35;;;;;;;0.30;0.30;;;;;;;;;;4974091;28;20210;-75
2022/12/14 08:46:05;;;;;;;0.20;0.20;;;;;;;;;;4973649;28;20265;-75
2022/12/14 08:48:34;;;;;;;0.20;0.20;;;;;;;;;;4974000;28;20209;-75
2022/12/14 08:51:03;;;;;;;0.30;0.30;;;;;;;;;;4973877;28;20257;-75
2022/12/14 08:53:31;;;;;;;0.30;0.30;;;;;;;;;;4976138;28;20206;-77
2022/12/14 08:56:04;;;;;;;0.20;0.20;;;;;;;;;;4977360;28;20210;-77
2022/12/14 08:58:34;;;;;;;0.20;0.20;;;;;;;;;;4976707;28;20256;-75
2022/12/14 09:01:03;;;;;;;0.20;0.20;;;;;;;;;;4977642;28;20210;-75
2022/12/14 09:03:33;;;;;;;0.20;0.20;;;;;;;;;;4978054;28;20202;-75
2022/12/14 09:06:02;;;;;;;0.30;0.30;;;;;;;;;;4976543;28;20226;-79
2022/12/14 09:08:31;;;;;;;0.30;0.30;;;;;;;;;;4977579;28;20245;-76
2022/12/14 09:11:00;;;;;;;0.30;0.30;;;;;;;;;;4977512;28;20256;-75
2022/12/14 09:13:28;;;;;;;0.27;0.27;;;;;;;;;;4976761;28;20214;-76
2022/12/14 09:15:58;;;;;;;0.30;0.30;;;;;;;;;;4977157;28;20226;-75
2022/12/14 09:18:27;;;;;;;0.30;0.30;;;;;;;;;;4977167;28;20659;-74
2022/12/14 09:20:59;;;;;;;0.30;0.30;;;;;;;;;;4977334;28;20210;-75
2022/12/14 09:23:28;;;;;;;0.30;0.30;;;;;;;;;;4977153;28;20206;-75
2022/12/14 09:26:02;;;;;;;0.30;0.30;;;;;;;;;;4976042;28;20241;-77
2022/12/14 09:28:32;;;;;;;0.30;0.30;;;;;;;;;;4974357;28;20203;-75
2022/12/14 09:31:01;;;;;;;0.20;0.20;;;;;;;;;;4977096;28;20729;-76
2022/12/14 09:33:30;;;;;;;0.20;0.20;;;;;;;;;;4976983;28;20215;-77
2022/12/14 09:36:04;;;;;;;0.20;0.20;;;;;;;;;;4977191;28;20285;-75
2022/12/14 09:38:34;;;;;;;0.30;0.30;;;;;;;;;;4958010;29;20211;-74
2022/12/14 09:41:03;;;;;;;0.20;0.20;;;;;;;;;;4958257;28;20672;-75
2022/12/14 09:43:39;;;;;;;0.20;0.20;;;;;;;;;;4957760;29;20269;-75
2022/12/14 09:46:20;;;;;;;0.20;0.20;;;;;;;;;;4968251;28;20226;-75
2022/12/14 09:48:50;;;;;;;0.20;0.20;;;;;;;;;;4976487;28;20210;-75
2022/12/14 09:51:22;;;;;;;0.20;0.20;;;;;;;;;;4976629;28;20266;-74
2022/12/14 09:53:51;;;;;;;0.20;0.20;;;;;;;;;;4976919;28;20237;-75
2022/12/14 09:56:26;;;;;;;0.10;0.10;;;;;;;;;;4975730;28;20601;-75
2022/12/14 09:58:56;;;;;;;0.20;0.20;;;;;;;;;;4975900;28;20215;-75
2022/12/14 10:01:36;;;;;;;0.10;0.10;;;;;;;;;;4976563;28;20238;-75
2022/12/14 10:04:11;;;;;;;0.10;0.10;;;;;;;;;;4975969;28;20201;-75
2022/12/14 10:06:45;;;;;;;0.10;0.10;;;;;;;;;;4976096;28;20304;-75
2022/12/14 10:09:18;;;;;;;0.10;0.10;;;;;;;;;;4975803;28;20235;-75
2022/12/14 10:11:51;;;;;;;0.10;0.10;;;;;;;;;;4974633;28;20209;-75
2022/12/14 10:14:23;;;;;;;0.00;0.00;;;;;;;;;;4975939;28;20272;-75
2022/12/14 10:16:57;;;;;;;0.00;0.00;;;;;;;;;;4975504;28;20231;-75
2022/12/14 10:19:30;;;;;;;0.10;0.10;;;;;;;;;;4975723;28;20217;-75
2022/12/14 10:22:03;;;;;;;0.00;0.00;;;;;;;;;;4974692;28;20233;-75
2022/12/14 10:24:35;;;;;;;0.00;0.00;;;;;;;;;;4974905;28;20311;-76
2022/12/14 10:27:04;;;;;;;0.00;0.00;;;;;;;;;;4975131;28;20225;-75
2022/12/14 10:29:36;;;;;;;0.10;0.10;;;;;;;;;;4956147;29;20293;-75
2022/12/14 10:32:08;;;;;;;0.03;0.03;;;;;;;;;;4956094;28;20206;-76
2022/12/14 10:34:38;;;;;;;0.00;0.00;;;;;;;;;;4976123;28;20575;-73
2022/12/14 10:37:13;;;;;;;0.00;0.00;;;;;;;;;;4975856;28;20244;-73
2022/12/14 10:39:48;;;;;;;0.00;0.00;;;;;;;;;;4974822;28;20251;-74
2022/12/14 10:42:20;;;;;;;0.00;0.00;;;;;;;;;;4975949;28;20206;-73
2022/12/14 10:44:53;;;;;;;0.03;0.03;;;;;;;;;;4968200;28;20271;-74
2022/12/14 10:47:43;;;;;;;0.00;0.00;;;;;;;;;;4975857;28;20208;-73
2022/12/14 10:50:17;;;;;;;0.00;0.00;;;;;;;;;;4976028;28;20729;-73
2022/12/14 10:52:48;;;;;;;0.00;0.00;;;;;;;;;;4975569;28;20206;-73
2022/12/14 10:55:19;;;;;;;0.10;0.10;;;;;;;;;;4975716;28;20677;-74
2022/12/14 10:57:48;;;;;;;0.00;0.00;;;;;;;;;;4975410;28;20249;-74
2022/12/14 11:00:17;;;;;;;0.10;0.10;;;;;;;;;;4975535;28;20247;-73
2022/12/14 11:02:55;;;;;;;0.10;0.10;;;;;;;;;;4975511;28;20294;-73
2022/12/14 11:05:28;;;;;;;0.00;0.00;;;;;;;;;;4975323;28;20312;-73
2022/12/14 11:08:06;;;;;;;0.00;0.00;;;;;;;;;;4974694;28;20637;-73
2022/12/14 11:10:38;;;;;;;0.10;0.10;;;;;;;;;;4975163;28;20205;-73
2022/12/14 11:13:07;;;;;;;0.00;0.00;;;;;;;;;;4974920;28;20213;-76
2022/12/14 11:15:37;;;;;;;0.00;0.00;;;;;;;;;;4974060;28;20226;-76
2022/12/14 11:18:07;;;;;;;0.00;0.00;;;;;;;;;;4975100;28;20284;-76
2022/12/14 11:20:36;;;;;;;0.00;0.00;;;;;;;;;;4974579;28;20209;-76
2022/12/14 11:23:09;;;;;;;0.00;0.00;;;;;;;;;;4974010;28;20237;-76
2022/12/14 11:25:40;;;;;;;0.00;0.00;;;;;;;;;;4974425;28;20276;-76
2022/12/14 11:28:26;;;;;;;0.00;0.00;;;;;;;;;;4973841;28;20198;-74
2022/12/14 11:31:03;;;;;;;0.00;0.00;;;;;;;;;;4974220;28;20622;-74
2022/12/14 11:33:34;;;;;;;0.00;0.00;;;;;;;;;;4974593;28;20260;-74
2022/12/14 11:36:02;;;;;;;0.10;0.10;;;;;;;;;;4974479;28;20248;-74
2022/12/14 11:38:32;;;;;;;0.00;0.00;;;;;;;;;;4974916;28;20256;-75
2022/12/14 11:41:02;;;;;;;0.00;0.00;;;;;;;;;;4975092;28;20655;-74
2022/12/14 11:43:40;;;;;;;0.00;0.00;;;;;;;;;;4961894;28;20202;-74
2022/12/14 11:46:09;;;;;;;0.00;0.00;;;;;;;;;;4960313;28;20234;-74
2022/12/14 11:48:38;;;;;;;0.00;0.00;;;;;;;;;;4974287;28;20320;-75
2022/12/14 11:51:11;;;;;;;0.00;0.00;;;;;;;;;;4974726;28;20208;-74
2022/12/14 11:53:41;;;;;;;0.00;0.00;;;;;;;;;;4974530;28;20570;-74
2022/12/14 11:56:14;;;;;;;0.00;0.00;;;;;;;;;;4974815;28;20253;-74
2022/12/14 11:58:48;;;;;;;0.00;0.00;;;;;;;;;;4974028;28;20230;-75
2022/12/14 12:01:19;;;;;;;0.00;0.00;;;;;;;;;;4974636;28;20233;-74
2022/12/14 12:04:02;;;;;;;0.00;0.00;;;;;;;;;;4953248;29;20205;-74
2022/12/14 12:06:34;;;;;;;0.00;0.00;;;;;;;;;;4972861;28;20772;-75
2022/12/14 12:09:13;;;;;;;0.10;0.10;;;;;;;;;;4974212;28;20209;-74
2022/12/14 12:11:45;;;;;;;0.00;0.00;;;;;;;;;;4974587;28;20197;-74
2022/12/14 12:14:22;;;;;;;0.00;0.00;;;;;;;;;;4974000;28;20210;-75
2022/12/14 12:16:52;;;;;;;0.00;0.00;;;;;;;;;;4974458;28;20548;-75
2022/12/14 12:19:23;;;;;;;0.00;0.00;;;;;;;;;;4973665;28;20225;-75
2022/12/14 12:21:53;;;;;;;0.00;0.00;;;;;;;;;;4964132;28;20206;-75
2022/12/14 12:24:25;;;;;;;0.00;0.00;;;;;;;;;;4974596;28;20210;-75
2022/12/14 12:26:57;;;;;;;0.07;0.07;;;;;;;;;;4974832;28;20222;-74
2022/12/14 12:29:30;;;;;;;0.00;0.00;;;;;;;;;;4977342;28;20206;-75
2022/12/14 12:32:01;;;;;;;0.00;0.00;;;;;;;;;;4977570;28;20200;-75
2022/12/14 12:34:32;;;;;;;0.00;0.00;;;;;;;;;;4963876;28;20223;-75
2022/12/14 12:37:03;;;;;;;0.00;0.00;;;;;;;;;;4958590;29;20671;-75
2022/12/14 12:39:58;;;;;;;0.03;0.03;;;;;;;;;;4969012;28;20564;-75
2022/12/14 12:42:31;;;;;;;0.00;0.00;;;;;;;;;;4977396;28;20260;-75
2022/12/14 12:45:03;;;;;;;0.00;0.00;;;;;;;;;;4977598;28;20226;-75
2022/12/14 12:47:37;;;;;;;0.00;0.00;;;;;;;;;;4976837;28;20293;-75
2022/12/14 12:50:16;;;;;;;0.00;0.00;;;;;;;;;;4977315;28;20309;-75
2022/12/14 12:52:50;;;;;;;0.00;0.00;;;;;;;;;;4977383;28;20234;-76
2022/12/14 12:55:24;;;;;;;0.00;0.00;;;;;;;;;;4977211;28;20225;-75
2022/12/14 12:57:54;;;;;;;0.00;0.00;;;;;;;;;;4976334;28;20202;-76
2022/12/14 13:00:25;;;;;;;0.00;0.00;;;;;;;;;;4977207;28;20205;-75
2022/12/14 13:02:55;;;;;;;0.00;0.00;;;;;;;;;;4977351;28;20260;-75
2022/12/14 13:05:26;;;;;;;0.00;0.00;;;;;;;;;;4975734;28;20224;-75
2022/12/14 13:08:17;;;;;;;0.00;0.00;;;;;;;;;;4977344;28;20296;-75
2022/12/14 13:10:48;;;;;;;0.00;0.00;;;;;;;;;;4976657;28;20256;-76
2022/12/14 13:13:38;;;;;;;0.00;0.00;;;;;;;;;;4975700;28;20552;-75
2022/12/14 13:16:11;;;;;;;0.10;0.10;;;;;;;;;;4975024;28;20257;-76
2022/12/14 13:18:41;;;;;;;0.00;0.00;;;;;;;;;;4974154;28;20248;-76
2022/12/14 13:21:32;;;;;;;0.00;0.00;;;;;;;;;;4973546;28;20206;-76
2022/12/14 13:24:00;;;;;;;0.00;0.00;;;;;;;;;;4977517;28;20230;-76
2022/12/14 13:26:47;;;;;;;0.10;0.10;;;;;;;;;;4975798;28;20269;-76
2022/12/14 13:29:36;;;;;;;0.00;0.00;;;;;;;;;;4976699;28;20208;-76
2022/12/14 13:32:08;;;;;;;0.00;0.00;;;;;;;;;;4964900;28;20239;-76
2022/12/14 13:34:42;;;;;;;0.00;0.00;;;;;;;;;;4992050;28;20234;-76
2022/12/14 13:37:37;;;;;;;0.10;0.10;;;;;;;;;;4971076;28;20233;-76
2022/12/14 13:40:27;;;;;;;0.00;0.00;;;;;;;;;;4974087;28;20215;-76
2022/12/14 13:43:02;;;;;;;0.00;0.00;;;;;;;;;;4982295;28;20202;-76
2022/12/14 13:45:35;;;;;;;0.00;0.00;;;;;;;;;;4985468;28;20221;-76
2022/12/14 13:48:07;;;;;;;0.10;0.10;;;;;;;;;;4996534;28;20281;-76
2022/12/14 13:50:37;;;;;;;0.10;0.10;;;;;;;;;;4985079;28;20220;-76
2022/12/14 13:53:27;;;;;;;0.10;0.10;;;;;;;;;;4975819;28;20307;-76
2022/12/14 13:55:57;;;;;;;0.10;0.10;;;;;;;;;;4976306;28;20234;-76
2022/12/14 13:58:31;;;;;;;0.10;0.10;;;;;;;;;;4979186;28;20215;-76
2022/12/14 14:01:03;;;;;;;0.10;0.10;;;;;;;;;;4624277;28;10000022;-76
2022/12/14 14:03:58;;;;;;;0.10;0.10;;;;;;;;;;4956646;28;20208;-76
2022/12/14 14:06:37;;;;;;;0.10;0.10;;;;;;;;;;4972576;28;20285;-78
2022/12/14 14:09:24;;;;;;;0.10;0.10;;;;;;;;;;4971698;28;20684;-78
2022/12/14 14:11:57;;;;;;;0.10;0.10;;;;;;;;;;4958425;28;20232;-78
2022/12/14 14:14:35;;;;;;;0.10;0.10;;;;;;;;;;4968999;28;20664;-78
2022/12/14 14:17:09;;;;;;;0.10;0.10;;;;;;;;;;4971353;28;20245;-78
2022/12/14 14:19:39;;;;;;;0.10;0.10;;;;;;;;;;4973061;28;20686;-77
2022/12/14 14:22:19;;;;;;;0.10;0.10;;;;;;;;;;4966174;28;20240;-78
2022/12/14 14:24:57;;;;;;;0.10;0.10;;;;;;;;;;4962768;28;20275;-78
2022/12/14 14:27:27;;;;;;;0.10;0.10;;;;;;;;;;4959578;28;20283;-78
2022/12/14 14:29:56;;;;;;;0.10;0.10;;;;;;;;;;4970294;28;20302;-78
2022/12/14 14:32:34;;;;;;;0.10;0.10;;;;;;;;;;4968841;28;20258;-78
2022/12/14 14:35:04;;;;;;;0.10;0.10;;;;;;;;;;4964824;28;20310;-78
2022/12/14 14:37:33;;;;;;;0.10;0.10;;;;;;;;;;4970321;28;20757;-78
2022/12/14 14:40:19;;;;;;;0.10;0.10;;;;;;;;;;4961945;28;20258;-78
2022/12/14 14:43:07;;;;;;;0.10;0.10;;;;;;;;;;4955129;28;20226;-78
2022/12/14 14:45:40;;;;;;;0.10;0.10;;;;;;;;;;4967324;28;20262;-78
2022/12/14 14:48:12;;;;;;;0.20;0.20;;;;;;;;;;4972105;28;20257;-77
2022/12/14 14:50:43;;;;;;;0.20;0.20;;;;;;;;;;4979282;28;20718;-77
2022/12/14 14:53:27;;;;;;;0.10;0.10;;;;;;;;;;4975417;28;20279;-77
2022/12/14 14:56:00;;;;;;;0.10;0.10;;;;;;;;;;4974836;28;20754;-77
2022/12/14 14:58:30;;;;;;;0.10;0.10;;;;;;;;;;4983599;28;20612;-77
2022/12/14 15:01:03;;;;;;;0.10;0.10;;;;;;;;;;4981270;28;20214;-77
2022/12/14 15:03:39;;;;;;;0.20;0.20;;;;;;;;;;4971725;28;20294;-77
2022/12/14 15:06:11;;;;;;;0.10;0.10;;;;;;;;;;4971652;28;20598;-77
2022/12/14 15:08:41;;;;;;;0.10;0.10;;;;;;;;;;4971387;28;20222;-77
2022/12/14 15:11:15;;;;;;;0.10;0.10;;;;;;;;;;4973503;28;20209;-77
2022/12/14 15:13:46;;;;;;;0.10;0.10;;;;;;;;;;4973398;28;20683;-77
2022/12/14 15:16:22;;;;;;;0.10;0.10;;;;;;;;;;4961136;28;20748;-77
2022/12/14 15:18:52;;;;;;;0.10;0.10;;;;;;;;;;4971927;28;20261;-77
2022/12/14 15:21:21;;;;;;;0.10;0.10;;;;;;;;;;4974453;28;20234;-77
2022/12/14 15:23:51;;;;;;;0.10;0.10;;;;;;;;;;4986702;28;20624;-76